Lena, Louisiana
Current Conditions -  °F | °C
As of 9:53 AM on Thursday 23 Oct 2014 (Local Time) from KAEX Reporting Station
Clear Clear  
Wind Chill: 14°   Ceiling: Unl
Heat Index: 14°   Visibility: 10mi
Dew Point: 10°   Wind: 0mph
Humidity: 75%   Direction: NA
Pressure: 30.14"   Gusts: NA
Location:  31.46°N, 92.77°W
Report Text: KAEX 231453Z 00000KT 10SM CLR 14/10 A3014 RMK AO2 SLP211 T01440100 53011
Loading
Personal Weather Stations






























Interactive Weather Map
Tropical Storm Tracking
New forecast layout! Learn more

10-Day Weather Forecast

Advertisements
Track Severe Weather on mobile